Time;durP1;ratioP1;P1;durP2;ratioP2;P2;SDS_P1;SDS_P2;PMS_P1;PMS_P2;Temp;Humidity;BMP_temperature;BMP_pressure;BME280_temperature;BME280_humidity;BME280_pressure;Samples;Min_cycle;Max_cycle;Signal;HPM_P1;HPM_P2
2021/04/09 00:00:26;;;;;;;3.72;1.13;;;;;;;;;;4970110;28;20134;-58
2021/04/09 00:02:53;;;;;;;3.45;0.90;;;;;;;;;;4973447;28;20056;-56
2021/04/09 00:05:20;;;;;;;3.03;0.80;;;;;;;;;;4988270;28;20106;-58
2021/04/09 00:07:48;;;;;;;3.63;1.02;;;;;;;;;;4974886;28;20453;-58
2021/04/09 00:10:15;;;;;;;4.07;0.82;;;;;;;;;;4988157;28;20526;-59
2021/04/09 00:12:41;;;;;;;4.53;0.88;;;;;;;;;;4986435;28;20042;-58
2021/04/09 00:15:08;;;;;;;2.55;0.82;;;;;;;;;;4987080;28;20041;-57
2021/04/09 00:17:34;;;;;;;2.60;0.82;;;;;;;;;;4990317;28;20156;-59
2021/04/09 00:19:59;;;;;;;6.25;2.30;;;;;;;;;;4993673;28;20041;-59
2021/04/09 00:22:25;;;;;;;10.15;3.30;;;;;;;;;;4989984;28;20034;-62
2021/04/09 00:24:51;;;;;;;2.65;0.80;;;;;;;;;;4991398;28;20057;-61
2021/04/09 00:27:17;;;;;;;2.72;0.80;;;;;;;;;;4991567;28;20052;-61
2021/04/09 00:29:43;;;;;;;4.28;1.15;;;;;;;;;;4990720;28;20114;-62
2021/04/09 00:32:09;;;;;;;2.40;0.80;;;;;;;;;;4991831;28;20445;-61
2021/04/09 00:34:35;;;;;;;2.50;0.80;;;;;;;;;;4992372;28;20053;-62
2021/04/09 00:37:01;;;;;;;2.83;0.90;;;;;;;;;;4990758;28;20037;-60
2021/04/09 00:39:27;;;;;;;3.53;1.00;;;;;;;;;;4989387;28;20096;-59
2021/04/09 00:41:53;;;;;;;3.38;0.85;;;;;;;;;;4991612;28;20042;-61
2021/04/09 00:44:19;;;;;;;2.40;0.88;;;;;;;;;;4989413;28;20054;-60
2021/04/09 00:46:44;;;;;;;2.35;0.75;;;;;;;;;;4991181;28;20034;-61
2021/04/09 00:49:10;;;;;;;4.07;0.90;;;;;;;;;;4990138;28;20045;-61
2021/04/09 00:51:36;;;;;;;4.35;0.90;;;;;;;;;;4991735;28;20144;-61
2021/04/09 00:54:06;;;;;;;3.75;0.75;;;;;;;;;;4991707;28;20081;-60
2021/04/09 00:56:34;;;;;;;2.83;1.13;;;;;;;;;;4988801;28;20034;-59
2021/04/09 00:59:00;;;;;;;2.17;0.82;;;;;;;;;;4989722;28;20046;-59
2021/04/09 01:01:26;;;;;;;2.10;0.70;;;;;;;;;;4989044;28;20089;-60
2021/04/09 01:03:54;;;;;;;3.22;0.80;;;;;;;;;;4991296;28;22153;-60
2021/04/09 01:06:20;;;;;;;5.60;1.00;;;;;;;;;;4990693;28;20177;-61
2021/04/09 01:08:46;;;;;;;2.17;0.75;;;;;;;;;;4975231;28;20805;-61
2021/04/09 01:11:12;;;;;;;3.97;0.70;;;;;;;;;;4989955;28;20066;-60
2021/04/09 01:13:38;;;;;;;2.28;0.70;;;;;;;;;;4989892;28;20475;-61
2021/04/09 01:16:07;;;;;;;3.40;0.75;;;;;;;;;;4976459;28;20057;-60
2021/04/09 01:18:38;;;;;;;2.92;0.80;;;;;;;;;;4989136;28;20524;-60
2021/04/09 01:21:22;;;;;;;2.10;0.70;;;;;;;;;;4990536;28;20220;-61
2021/04/09 01:24:02;;;;;;;2.38;0.73;;;;;;;;;;4988482;28;21131;-59
2021/04/09 01:26:30;;;;;;;4.03;1.00;;;;;;;;;;4988876;28;20045;-60
2021/04/09 01:29:15;;;;;;;3.20;0.90;;;;;;;;;;4990078;28;20086;-59
2021/04/09 01:31:46;;;;;;;5.45;0.80;;;;;;;;;;4986255;28;20077;-58
2021/04/09 01:34:13;;;;;;;3.00;0.80;;;;;;;;;;4988135;28;20042;-62
2021/04/09 01:36:41;;;;;;;3.88;1.00;;;;;;;;;;4988084;28;20459;-61
2021/04/09 01:39:10;;;;;;;4.10;1.45;;;;;;;;;;4968556;28;20295;-60
2021/04/09 01:41:37;;;;;;;4.15;0.90;;;;;;;;;;4988861;28;20564;-60
2021/04/09 01:44:04;;;;;;;2.85;0.70;;;;;;;;;;4954339;28;20042;-61
2021/04/09 01:46:31;;;;;;;3.80;1.48;;;;;;;;;;4989209;28;20662;-60
2021/04/09 01:48:57;;;;;;;6.07;1.08;;;;;;;;;;4989926;28;20040;-60
2021/04/09 01:51:23;;;;;;;4.18;1.02;;;;;;;;;;4970731;28;20046;-60
2021/04/09 01:53:49;;;;;;;2.30;0.80;;;;;;;;;;4988772;28;20077;-58
2021/04/09 01:56:16;;;;;;;3.25;1.10;;;;;;;;;;4987702;28;20038;-60
2021/04/09 01:58:42;;;;;;;7.05;3.13;;;;;;;;;;4986993;28;20037;-58
2021/04/09 02:01:15;;;;;;;5.25;1.10;;;;;;;;;;4989778;28;20042;-59
2021/04/09 02:03:43;;;;;;;4.35;1.20;;;;;;;;;;4988795;28;20058;-60
2021/04/09 02:06:09;;;;;;;3.78;1.00;;;;;;;;;;4987842;28;20041;-60
2021/04/09 02:08:36;;;;;;;6.00;1.10;;;;;;;;;;4989622;28;20114;-59
2021/04/09 02:11:02;;;;;;;4.38;1.30;;;;;;;;;;4988116;28;20822;-60
2021/04/09 02:13:28;;;;;;;5.60;1.10;;;;;;;;;;4986564;28;20030;-60
2021/04/09 02:15:55;;;;;;;4.63;1.30;;;;;;;;;;4986431;28;20049;-61
2021/04/09 02:18:26;;;;;;;7.95;1.40;;;;;;;;;;4987302;28;20837;-60
2021/04/09 02:20:58;;;;;;;4.40;1.48;;;;;;;;;;4987303;28;20125;-60
2021/04/09 02:23:24;;;;;;;6.93;2.22;;;;;;;;;;4986443;28;20057;-59
2021/04/09 02:25:50;;;;;;;7.53;2.45;;;;;;;;;;4987072;28;20097;-57
2021/04/09 02:28:16;;;;;;;5.72;2.30;;;;;;;;;;4988632;28;20054;-58
2021/04/09 02:30:42;;;;;;;5.28;2.08;;;;;;;;;;4988512;28;20049;-58
2021/04/09 02:33:08;;;;;;;8.40;2.10;;;;;;;;;;4988652;28;20370;-57
2021/04/09 02:35:34;;;;;;;7.93;2.00;;;;;;;;;;4987093;28;20137;-56
2021/04/09 02:38:01;;;;;;;7.90;1.65;;;;;;;;;;4987421;28;20038;-60
2021/04/09 02:40:32;;;;;;;4.63;1.23;;;;;;;;;;4985411;28;20056;-57
2021/04/09 02:42:58;;;;;;;4.43;1.60;;;;;;;;;;4984534;28;20068;-57
2021/04/09 02:45:27;;;;;;;5.20;1.77;;;;;;;;;;4986284;28;20066;-58
2021/04/09 02:47:55;;;;;;;5.75;1.70;;;;;;;;;;4987157;28;20046;-57
2021/04/09 02:50:26;;;;;;;6.28;1.58;;;;;;;;;;4987994;28;20031;-56
2021/04/09 02:52:54;;;;;;;7.13;2.10;;;;;;;;;;4978412;28;20062;-56
2021/04/09 02:55:26;;;;;;;6.40;1.42;;;;;;;;;;4986487;28;20034;-53
2021/04/09 02:57:53;;;;;;;7.28;1.95;;;;;;;;;;4988100;28;20040;-57
2021/04/09 03:00:19;;;;;;;4.65;1.70;;;;;;;;;;4987732;28;20132;-56
2021/04/09 03:02:47;;;;;;;5.63;1.58;;;;;;;;;;4989763;28;20038;-55
2021/04/09 03:05:13;;;;;;;5.97;1.70;;;;;;;;;;4987083;28;20038;-55
2021/04/09 03:07:40;;;;;;;5.68;1.73;;;;;;;;;;4986969;28;20041;-54
2021/04/09 03:10:10;;;;;;;7.72;1.42;;;;;;;;;;4987447;28;20045;-56
2021/04/09 03:12:36;;;;;;;7.20;1.40;;;;;;;;;;4986748;28;20518;-56
2021/04/09 03:15:03;;;;;;;6.82;1.55;;;;;;;;;;4986994;28;20076;-54
2021/04/09 03:17:31;;;;;;;6.25;1.38;;;;;;;;;;4987894;28;20049;-54
2021/04/09 03:19:57;;;;;;;7.95;1.42;;;;;;;;;;4987240;28;20129;-54
2021/04/09 03:22:23;;;;;;;7.00;1.60;;;;;;;;;;4987592;28;20046;-55
2021/04/09 03:24:49;;;;;;;8.05;1.40;;;;;;;;;;4986581;28;20057;-56
2021/04/09 03:27:15;;;;;;;5.65;1.42;;;;;;;;;;4987685;28;20041;-57
2021/04/09 03:29:41;;;;;;;5.88;1.80;;;;;;;;;;4989065;28;20041;-56
2021/04/09 03:32:07;;;;;;;5.45;1.83;;;;;;;;;;4988404;28;20116;-56
2021/04/09 03:34:33;;;;;;;11.85;1.95;;;;;;;;;;4975494;28;20030;-56
2021/04/09 03:36:59;;;;;;;5.35;1.42;;;;;;;;;;4987985;28;20027;-54
2021/04/09 03:39:25;;;;;;;6.25;1.27;;;;;;;;;;4987809;28;20514;-56
2021/04/09 03:41:51;;;;;;;11.52;1.70;;;;;;;;;;4988570;28;20567;-54
2021/04/09 03:44:17;;;;;;;8.75;1.58;;;;;;;;;;4987220;28;20046;-58
2021/04/09 03:46:43;;;;;;;6.38;1.50;;;;;;;;;;4988009;28;20042;-55
2021/04/09 03:49:09;;;;;;;4.95;1.40;;;;;;;;;;4987647;28;20387;-56
2021/04/09 03:51:35;;;;;;;6.18;1.58;;;;;;;;;;4989719;28;20438;-57
2021/04/09 03:54:01;;;;;;;11.98;1.52;;;;;;;;;;4992775;28;20037;-58
2021/04/09 03:56:26;;;;;;;8.95;1.88;;;;;;;;;;4992955;28;20045;-55
2021/04/09 03:58:52;;;;;;;9.77;1.90;;;;;;;;;;4993206;28;20407;-55
2021/04/09 04:01:18;;;;;;;7.65;1.90;;;;;;;;;;4990515;28;20034;-55
2021/04/09 04:03:47;;;;;;;12.35;5.57;;;;;;;;;;4991667;28;20236;-54
2021/04/09 04:06:13;;;;;;;8.63;3.25;;;;;;;;;;4973043;28;20125;-57
2021/04/09 04:08:39;;;;;;;11.88;2.50;;;;;;;;;;4992474;28;20034;-56
2021/04/09 04:11:05;;;;;;;7.93;2.40;;;;;;;;;;4991241;28;20144;-56
2021/04/09 04:13:31;;;;;;;15.90;1.85;;;;;;;;;;4991618;28;20131;-55
2021/04/09 04:15:57;;;;;;;10.35;2.20;;;;;;;;;;4991064;28;20061;-57
2021/04/09 04:18:22;;;;;;;15.90;2.22;;;;;;;;;;4990757;28;20039;-58
2021/04/09 04:20:48;;;;;;;12.93;2.50;;;;;;;;;;4991238;28;20043;-54
2021/04/09 04:23:14;;;;;;;7.22;1.98;;;;;;;;;;4992079;28;20034;-58
2021/04/09 04:25:40;;;;;;;8.63;1.60;;;;;;;;;;4989889;28;20474;-55
2021/04/09 04:28:06;;;;;;;12.85;2.05;;;;;;;;;;4993479;28;20035;-53
2021/04/09 04:30:32;;;;;;;15.00;1.73;;;;;;;;;;4989772;28;20149;-54
2021/04/09 04:32:58;;;;;;;15.48;2.17;;;;;;;;;;4991859;28;20042;-55
2021/04/09 04:35:23;;;;;;;8.15;1.50;;;;;;;;;;4990718;28;20056;-55
2021/04/09 04:37:49;;;;;;;8.88;1.73;;;;;;;;;;4991515;28;20034;-55
2021/04/09 04:40:15;;;;;;;6.03;1.48;;;;;;;;;;4990490;28;20520;-55
2021/04/09 04:42:41;;;;;;;6.97;1.33;;;;;;;;;;4992103;28;20053;-55
2021/04/09 04:45:07;;;;;;;4.47;1.48;;;;;;;;;;4993641;28;20542;-58
2021/04/09 04:47:33;;;;;;;6.28;1.40;;;;;;;;;;4970754;28;20030;-54
2021/04/09 04:49:59;;;;;;;4.63;1.33;;;;;;;;;;4994488;28;20052;-55
2021/04/09 04:52:25;;;;;;;4.88;1.23;;;;;;;;;;4991317;28;20054;-55
2021/04/09 04:54:51;;;;;;;5.10;1.30;;;;;;;;;;4990832;28;20112;-56
2021/04/09 04:57:17;;;;;;;3.95;1.30;;;;;;;;;;4991176;28;20054;-56
2021/04/09 04:59:43;;;;;;;6.13;1.52;;;;;;;;;;4990886;28;20112;-53
2021/04/09 05:02:09;;;;;;;6.22;1.17;;;;;;;;;;4988036;28;20034;-55
2021/04/09 05:04:35;;;;;;;5.70;1.38;;;;;;;;;;4988217;28;20108;-56
2021/04/09 05:07:00;;;;;;;4.68;1.13;;;;;;;;;;4989529;28;20113;-54
2021/04/09 05:09:26;;;;;;;3.28;1.20;;;;;;;;;;4989005;28;20042;-54
2021/04/09 05:11:52;;;;;;;3.67;0.90;;;;;;;;;;4989403;28;20439;-56
2021/04/09 05:14:18;;;;;;;4.68;1.30;;;;;;;;;;4990281;28;20121;-55
2021/04/09 05:16:44;;;;;;;4.25;2.00;;;;;;;;;;4991530;28;20511;-53
2021/04/09 05:19:10;;;;;;;3.92;1.33;;;;;;;;;;4991508;28;20034;-54
2021/04/09 05:21:36;;;;;;;3.67;1.23;;;;;;;;;;4990109;28;20030;-55
2021/04/09 05:24:02;;;;;;;7.43;1.20;;;;;;;;;;4988570;28;20133;-52
2021/04/09 05:26:28;;;;;;;3.22;1.20;;;;;;;;;;4989587;28;20053;-55
2021/04/09 05:28:53;;;;;;;4.05;1.13;;;;;;;;;;4989110;28;20129;-55
2021/04/09 05:31:19;;;;;;;4.22;1.33;;;;;;;;;;4990714;28;20485;-55
2021/04/09 05:33:45;;;;;;;4.65;1.45;;;;;;;;;;4991401;28;20049;-53
2021/04/09 05:39:29;;;;;;;3.67;1.38;;;;;;;;;;4955268;28;20164;-55
2021/04/09 05:41:55;;;;;;;5.45;1.60;;;;;;;;;;4987859;28;20093;-53
2021/04/09 05:44:21;;;;;;;7.00;1.75;;;;;;;;;;4992085;28;20052;-57
2021/04/09 05:46:47;;;;;;;6.03;1.40;;;;;;;;;;4992989;28;20629;-55
2021/04/09 05:49:13;;;;;;;3.88;1.20;;;;;;;;;;4996472;28;20118;-54
2021/04/09 05:51:39;;;;;;;4.20;1.80;;;;;;;;;;4994479;28;20105;-56
2021/04/09 05:54:05;;;;;;;5.25;1.85;;;;;;;;;;4995768;28;20037;-58
2021/04/09 05:56:34;;;;;;;5.38;1.95;;;;;;;;;;4999697;28;20048;-53
2021/04/09 05:59:00;;;;;;;4.38;1.40;;;;;;;;;;4995230;28;20067;-53
2021/04/09 06:01:28;;;;;;;3.80;1.40;;;;;;;;;;4990719;28;20787;-55
2021/04/09 06:03:53;;;;;;;4.53;1.50;;;;;;;;;;4989578;28;20050;-55
2021/04/09 06:06:19;;;;;;;6.32;1.55;;;;;;;;;;4994507;28;20850;-56
2021/04/09 06:08:45;;;;;;;6.72;1.45;;;;;;;;;;4989005;28;20432;-56
2021/04/09 06:11:11;;;;;;;3.90;1.25;;;;;;;;;;4988538;28;20402;-55
2021/04/09 06:13:37;;;;;;;6.95;1.52;;;;;;;;;;4987282;28;20065;-55
2021/04/09 06:16:04;;;;;;;5.38;1.30;;;;;;;;;;4988076;28;20030;-53
2021/04/09 06:18:30;;;;;;;3.92;1.63;;;;;;;;;;4990997;28;20167;-54
2021/04/09 06:20:56;;;;;;;4.18;1.60;;;;;;;;;;4989560;28;20653;-54
2021/04/09 06:23:22;;;;;;;4.03;1.40;;;;;;;;;;4988906;28;20060;-55
2021/04/09 06:25:47;;;;;;;3.47;1.38;;;;;;;;;;4987843;28;20056;-54
2021/04/09 06:28:13;;;;;;;5.80;1.45;;;;;;;;;;4988898;28;20800;-52
2021/04/09 06:30:39;;;;;;;4.45;1.45;;;;;;;;;;4989503;28;20344;-56
2021/04/09 06:33:05;;;;;;;4.22;1.40;;;;;;;;;;4986912;28;20038;-52
2021/04/09 06:35:31;;;;;;;3.80;1.55;;;;;;;;;;4989489;28;20042;-53
2021/04/09 06:37:57;;;;;;;4.35;1.33;;;;;;;;;;4988466;28;20038;-55
2021/04/09 06:40:24;;;;;;;3.42;1.27;;;;;;;;;;4987877;28;20072;-55
2021/04/09 06:42:56;;;;;;;3.28;1.13;;;;;;;;;;4990550;28;20041;-54
2021/04/09 06:45:23;;;;;;;3.40;1.30;;;;;;;;;;4986721;28;20820;-54
2021/04/09 06:47:49;;;;;;;5.18;1.58;;;;;;;;;;4987816;28;20138;-55
2021/04/09 06:50:15;;;;;;;4.15;1.58;;;;;;;;;;4972507;28;20513;-53
2021/04/09 06:52:44;;;;;;;4.75;1.77;;;;;;;;;;4987571;28;20048;-55
2021/04/09 06:55:10;;;;;;;4.40;1.73;;;;;;;;;;4988369;28;20054;-56
2021/04/09 06:57:39;;;;;;;6.07;1.60;;;;;;;;;;4988648;28;20068;-52
2021/04/09 07:00:06;;;;;;;3.67;1.55;;;;;;;;;;4988679;28;20050;-53
2021/04/09 07:02:32;;;;;;;7.60;1.60;;;;;;;;;;4988156;28;20117;-52
2021/04/09 07:05:07;;;;;;;3.55;1.48;;;;;;;;;;4985166;28;20050;-54
2021/04/09 07:07:33;;;;;;;6.50;1.58;;;;;;;;;;4987925;28;20165;-54
2021/04/09 07:09:59;;;;;;;7.47;1.70;;;;;;;;;;4989192;28;20403;-55
2021/04/09 07:12:26;;;;;;;7.72;1.58;;;;;;;;;;4987684;28;20117;-53
2021/04/09 07:14:52;;;;;;;4.60;1.30;;;;;;;;;;4985838;28;22189;-56
2021/04/09 07:17:24;;;;;;;4.07;1.38;;;;;;;;;;4987591;28;20034;-55
2021/04/09 07:19:51;;;;;;;5.32;1.40;;;;;;;;;;4988288;28;20132;-53
2021/04/09 07:22:27;;;;;;;4.93;1.60;;;;;;;;;;4986792;28;20169;-55
2021/04/09 07:25:01;;;;;;;4.18;1.58;;;;;;;;;;4987131;28;20065;-53
2021/04/09 07:27:27;;;;;;;2.97;1.25;;;;;;;;;;4986596;28;20045;-54
2021/04/09 07:29:53;;;;;;;6.13;1.67;;;;;;;;;;4989000;28;20049;-55
2021/04/09 07:32:19;;;;;;;4.43;1.73;;;;;;;;;;4985181;28;20077;-53
2021/04/09 07:35:04;;;;;;;3.67;1.33;;;;;;;;;;4985977;28;20062;-55
2021/04/09 07:37:47;;;;;;;5.93;1.70;;;;;;;;;;4987021;28;20030;-54
2021/04/09 07:40:14;;;;;;;3.97;1.58;;;;;;;;;;4988422;28;20157;-54
2021/04/09 07:42:40;;;;;;;4.90;1.77;;;;;;;;;;4987412;28;20936;-55
2021/04/09 07:45:09;;;;;;;5.30;1.90;;;;;;;;;;4975100;28;20050;-55
2021/04/09 07:47:34;;;;;;;5.93;1.88;;;;;;;;;;4987232;28;20043;-54
2021/04/09 07:50:01;;;;;;;4.28;1.48;;;;;;;;;;4988374;28;20042;-54
2021/04/09 07:52:36;;;;;;;5.75;1.88;;;;;;;;;;4986650;28;20034;-55
2021/04/09 07:55:13;;;;;;;7.40;1.90;;;;;;;;;;4985255;28;20218;-52
2021/04/09 07:57:38;;;;;;;6.72;1.92;;;;;;;;;;4985181;28;20053;-54
2021/04/09 08:00:18;;;;;;;7.22;1.90;;;;;;;;;;4985650;28;20046;-55
2021/04/09 08:02:44;;;;;;;6.85;1.92;;;;;;;;;;4987626;28;20085;-52
2021/04/09 08:05:10;;;;;;;5.38;1.70;;;;;;;;;;4987059;28;20065;-52
2021/04/09 08:07:36;;;;;;;5.68;1.95;;;;;;;;;;4985871;28;20030;-54
2021/04/09 08:10:03;;;;;;;11.68;2.00;;;;;;;;;;4986165;28;20089;-56
2021/04/09 08:12:30;;;;;;;6.18;1.90;;;;;;;;;;4985157;28;20101;-54
2021/04/09 08:14:56;;;;;;;5.40;1.90;;;;;;;;;;4986876;28;20038;-55
2021/04/09 08:17:23;;;;;;;4.63;1.60;;;;;;;;;;4986112;28;20128;-54
2021/04/09 08:19:53;;;;;;;3.97;1.50;;;;;;;;;;4987802;28;20066;-52
2021/04/09 08:22:20;;;;;;;5.03;1.95;;;;;;;;;;4986325;28;20498;-53
2021/04/09 08:24:48;;;;;;;7.70;1.95;;;;;;;;;;4986501;28;20060;-56
2021/04/09 08:27:15;;;;;;;4.93;1.88;;;;;;;;;;4986409;28;20567;-53
2021/04/09 08:29:42;;;;;;;6.82;1.90;;;;;;;;;;4986224;28;20042;-53
2021/04/09 08:32:09;;;;;;;8.18;1.65;;;;;;;;;;4986977;28;20088;-56
2021/04/09 08:34:34;;;;;;;3.83;1.58;;;;;;;;;;4985832;28;20698;-54
2021/04/09 08:37:01;;;;;;;3.53;1.50;;;;;;;;;;4987690;28;20030;-53
2021/04/09 08:39:26;;;;;;;5.20;1.70;;;;;;;;;;4989538;28;20042;-56
2021/04/09 08:41:55;;;;;;;6.63;2.13;;;;;;;;;;4991167;28;20092;-54
2021/04/09 08:44:21;;;;;;;4.75;1.98;;;;;;;;;;4987834;28;20049;-53
2021/04/09 08:46:47;;;;;;;4.55;1.70;;;;;;;;;;4989373;28;20096;-56
2021/04/09 08:49:14;;;;;;;7.40;2.03;;;;;;;;;;4988126;28;20026;-55
2021/04/09 08:51:40;;;;;;;10.43;2.30;;;;;;;;;;4990049;28;20042;-59
2021/04/09 08:54:16;;;;;;;6.90;1.67;;;;;;;;;;4990394;28;20423;-61
2021/04/09 08:56:42;;;;;;;5.43;1.80;;;;;;;;;;4990114;28;20060;-59
2021/04/09 08:59:08;;;;;;;5.25;1.70;;;;;;;;;;4991418;28;20037;-60
2021/04/09 09:01:34;;;;;;;4.38;1.70;;;;;;;;;;4990182;28;20045;-60
2021/04/09 09:04:18;;;;;;;7.18;2.00;;;;;;;;;;4989703;28;20137;-59
2021/04/09 09:06:44;;;;;;;5.95;2.00;;;;;;;;;;4992145;28;20121;-60
2021/04/09 09:09:10;;;;;;;7.30;1.88;;;;;;;;;;4990741;28;20529;-60
2021/04/09 09:11:49;;;;;;;8.98;1.92;;;;;;;;;;4990087;28;20061;-57
2021/04/09 09:14:33;;;;;;;6.63;1.90;;;;;;;;;;4989559;28;20046;-60
2021/04/09 09:17:17;;;;;;;4.57;2.00;;;;;;;;;;4988780;28;20038;-56
2021/04/09 09:19:42;;;;;;;;;;;;;;;;;;4991256;28;20053;-58
2021/04/09 09:22:15;;;;;;;5.63;1.80;;;;;;;;;;4990890;28;20200;-59
2021/04/09 09:25:00;;;;;;;7.32;1.85;;;;;;;;;;4989405;28;20097;-59
2021/04/09 09:27:45;;;;;;;5.35;1.95;;;;;;;;;;4991478;28;20522;-60
2021/04/09 09:30:31;;;;;;;4.80;2.10;;;;;;;;;;4991609;28;20056;-56
2021/04/09 09:33:15;;;;;;;10.75;2.10;;;;;;;;;;4989846;28;20038;-58
2021/04/09 09:35:56;;;;;;;4.55;1.88;;;;;;;;;;4988979;28;20676;-60
2021/04/09 09:38:40;;;;;;;6.15;2.00;;;;;;;;;;4987973;28;20069;-58
2021/04/09 09:41:07;;;;;;;7.00;1.58;;;;;;;;;;4989079;28;20057;-58
2021/04/09 09:43:33;;;;;;;8.60;1.65;;;;;;;;;;4987664;28;20065;-58
2021/04/09 09:45:59;;;;;;;9.10;2.05;;;;;;;;;;4989026;28;20042;-59
2021/04/09 09:48:25;;;;;;;8.27;1.90;;;;;;;;;;4985717;28;20065;-59
2021/04/09 09:50:51;;;;;;;4.55;1.92;;;;;;;;;;4989151;28;20038;-61
2021/04/09 09:53:17;;;;;;;6.75;1.90;;;;;;;;;;4990596;28;20065;-60
2021/04/09 09:55:47;;;;;;;5.13;1.80;;;;;;;;;;4989877;28;20046;-59
2021/04/09 09:58:13;;;;;;;5.45;1.60;;;;;;;;;;4971713;28;20124;-58
2021/04/09 10:00:41;;;;;;;4.63;1.80;;;;;;;;;;4977903;28;20475;-60
2021/04/09 10:03:25;;;;;;;6.35;1.80;;;;;;;;;;4987642;28;20037;-58
2021/04/09 10:06:12;;;;;;;3.35;1.20;;;;;;;;;;4989846;28;20081;-57
2021/04/09 10:08:38;;;;;;;5.13;1.95;;;;;;;;;;4989322;28;20042;-59
2021/04/09 10:11:06;;;;;;;4.45;1.40;;;;;;;;;;4990086;28;20037;-59
2021/04/09 10:13:42;;;;;;;8.50;2.10;;;;;;;;;;4987938;28;20613;-57
2021/04/09 10:16:15;;;;;;;4.32;1.70;;;;;;;;;;4977976;28;20042;-60
2021/04/09 10:18:42;;;;;;;5.43;1.73;;;;;;;;;;4977696;28;20042;-58
2021/04/09 10:21:25;;;;;;;6.80;1.92;;;;;;;;;;4990871;28;20117;-61
2021/04/09 10:23:52;;;;;;;3.63;1.35;;;;;;;;;;4986439;28;20046;-58
2021/04/09 10:26:23;;;;;;;4.65;1.90;;;;;;;;;;4988955;28;20038;-59
2021/04/09 10:28:49;;;;;;;7.85;1.83;;;;;;;;;;4987857;28;20690;-60
2021/04/09 10:31:16;;;;;;;4.50;1.88;;;;;;;;;;4968597;28;20414;-59
2021/04/09 10:33:42;;;;;;;5.13;1.38;;;;;;;;;;4986453;28;20045;-60
2021/04/09 10:36:14;;;;;;;5.93;1.48;;;;;;;;;;4989434;28;20177;-61
2021/04/09 10:38:40;;;;;;;6.95;1.50;;;;;;;;;;4989079;28;20034;-62
2021/04/09 10:41:06;;;;;;;6.13;1.50;;;;;;;;;;4989191;28;20053;-62
2021/04/09 10:43:33;;;;;;;3.28;1.10;;;;;;;;;;4971515;28;20049;-60
2021/04/09 10:46:06;;;;;;;4.43;1.20;;;;;;;;;;4978472;28;20074;-60
2021/04/09 10:48:33;;;;;;;4.72;1.20;;;;;;;;;;4987566;28;20041;-61
2021/04/09 10:50:59;;;;;;;3.40;1.00;;;;;;;;;;4987952;28;20038;-61
2021/04/09 10:53:25;;;;;;;2.50;0.80;;;;;;;;;;4970895;28;20038;-60
2021/04/09 10:55:51;;;;;;;3.58;0.95;;;;;;;;;;4986861;28;20034;-61
2021/04/09 10:58:17;;;;;;;3.80;1.00;;;;;;;;;;4966269;28;20038;-60
2021/04/09 11:00:44;;;;;;;6.50;0.90;;;;;;;;;;4986765;28;20557;-60
2021/04/09 11:03:11;;;;;;;2.72;0.90;;;;;;;;;;4986934;28;20045;-61
2021/04/09 11:05:37;;;;;;;6.32;1.05;;;;;;;;;;4988618;28;20107;-59
2021/04/09 11:08:03;;;;;;;2.63;0.70;;;;;;;;;;4987921;28;20035;-61
2021/04/09 11:10:31;;;;;;;2.85;0.95;;;;;;;;;;4986077;28;20993;-61
2021/04/09 11:12:57;;;;;;;3.92;0.90;;;;;;;;;;4987422;28;20045;-58
2021/04/09 11:15:23;;;;;;;2.22;0.70;;;;;;;;;;4986643;28;20089;-61
2021/04/09 11:17:58;;;;;;;5.88;0.70;;;;;;;;;;4987195;28;20557;-60
2021/04/09 11:20:26;;;;;;;5.47;0.80;;;;;;;;;;4987177;28;20049;-61
2021/04/09 11:23:00;;;;;;;3.22;0.88;;;;;;;;;;4987491;28;20438;-61
2021/04/09 11:25:31;;;;;;;4.40;0.65;;;;;;;;;;4988807;28;20612;-61
2021/04/09 11:27:56;;;;;;;2.33;0.60;;;;;;;;;;4979916;28;20375;-58
2021/04/09 11:30:22;;;;;;;2.63;0.70;;;;;;;;;;4989144;28;20069;-60
2021/04/09 11:32:53;;;;;;;2.08;0.60;;;;;;;;;;4973573;28;20062;-60
2021/04/09 11:35:20;;;;;;;2.85;0.50;;;;;;;;;;4989171;28;20062;-58
2021/04/09 11:37:48;;;;;;;2.22;0.63;;;;;;;;;;4988349;28;20156;-60
2021/04/09 11:40:17;;;;;;;1.88;0.50;;;;;;;;;;4987283;28;20054;-59
2021/04/09 11:42:43;;;;;;;2.97;0.90;;;;;;;;;;4987260;28;20146;-62
2021/04/09 11:45:13;;;;;;;1.80;0.60;;;;;;;;;;4987130;28;20080;-60
2021/04/09 11:47:40;;;;;;;2.63;0.80;;;;;;;;;;4988398;28;20033;-60
2021/04/09 11:50:08;;;;;;;1.77;0.52;;;;;;;;;;4986623;28;20128;-60
2021/04/09 11:52:51;;;;;;;2.75;0.60;;;;;;;;;;4987282;28;20101;-58
2021/04/09 11:55:18;;;;;;;4.97;0.93;;;;;;;;;;4987884;28;20035;-62
2021/04/09 11:57:44;;;;;;;3.50;0.63;;;;;;;;;;4991728;28;20049;-60
2021/04/09 12:00:22;;;;;;;7.57;1.10;;;;;;;;;;4989335;28;20042;-61
2021/04/09 12:02:57;;;;;;;3.97;0.60;;;;;;;;;;4988445;28;20097;-60
2021/04/09 12:05:40;;;;;;;3.30;0.80;;;;;;;;;;4964843;28;20051;-61
2021/04/09 12:08:06;;;;;;;2.88;0.70;;;;;;;;;;4966152;28;20692;-61
2021/04/09 12:10:33;;;;;;;4.07;0.60;;;;;;;;;;4965719;28;20122;-60
2021/04/09 12:12:59;;;;;;;4.40;0.80;;;;;;;;;;4969289;28;20038;-60
2021/04/09 12:15:26;;;;;;;3.55;0.73;;;;;;;;;;4968219;28;21755;-60
2021/04/09 12:17:53;;;;;;;4.70;0.80;;;;;;;;;;4971041;28;20104;-58
2021/04/09 12:20:20;;;;;;;3.55;0.90;;;;;;;;;;4967461;28;20588;-59
2021/04/09 12:22:46;;;;;;;2.50;0.60;;;;;;;;;;4969866;28;20043;-59
2021/04/09 12:25:13;;;;;;;2.15;0.60;;;;;;;;;;4969789;28;20609;-57
2021/04/09 12:27:39;;;;;;;4.60;0.85;;;;;;;;;;4972333;28;20194;-58
2021/04/09 12:30:07;;;;;;;4.45;0.60;;;;;;;;;;4969792;28;20158;-57
2021/04/09 12:32:33;;;;;;;4.35;0.68;;;;;;;;;;4970674;28;20469;-59
2021/04/09 12:34:59;;;;;;;4.70;0.82;;;;;;;;;;4968925;28;20177;-58
2021/04/09 12:37:25;;;;;;;3.03;0.80;;;;;;;;;;4973189;28;20115;-59
2021/04/09 12:39:51;;;;;;;3.33;0.60;;;;;;;;;;4994695;28;20038;-58
2021/04/09 12:42:17;;;;;;;4.40;0.70;;;;;;;;;;4977475;28;20046;-60
2021/04/09 12:44:43;;;;;;;2.63;0.60;;;;;;;;;;4993352;28;20046;-59
2021/04/09 12:47:09;;;;;;;2.58;0.60;;;;;;;;;;4991492;28;20089;-60
2021/04/09 12:49:35;;;;;;;2.67;0.73;;;;;;;;;;4990298;28;20038;-59
2021/04/09 12:52:01;;;;;;;5.93;0.75;;;;;;;;;;4990994;28;20037;-59
2021/04/09 12:54:27;;;;;;;4.35;0.70;;;;;;;;;;4978469;28;20142;-60
2021/04/09 12:56:54;;;;;;;5.70;0.77;;;;;;;;;;4986059;28;20038;-60
2021/04/09 12:59:19;;;;;;;2.90;0.70;;;;;;;;;;4991741;28;20045;-59
2021/04/09 13:01:45;;;;;;;8.10;1.20;;;;;;;;;;4992272;28;20034;-56
2021/04/09 13:04:11;;;;;;;3.38;0.70;;;;;;;;;;4978036;28;20050;-60
2021/04/09 13:06:38;;;;;;;3.58;0.80;;;;;;;;;;4992112;28;20041;-58
2021/04/09 13:09:05;;;;;;;13.43;0.98;;;;;;;;;;4992291;28;20038;-60
2021/04/09 13:11:31;;;;;;;8.32;0.90;;;;;;;;;;4980364;28;20030;-60
2021/04/09 13:13:57;;;;;;;6.88;1.02;;;;;;;;;;4963247;28;20085;-60
2021/04/09 13:16:23;;;;;;;8.02;1.30;;;;;;;;;;4993123;28;20038;-61
2021/04/09 13:18:50;;;;;;;7.10;1.00;;;;;;;;;;4991387;28;20069;-61
2021/04/09 13:21:16;;;;;;;7.70;1.20;;;;;;;;;;4969676;28;20044;-59
2021/04/09 13:23:42;;;;;;;9.55;1.00;;;;;;;;;;4987941;28;20105;-58
2021/04/09 13:26:08;;;;;;;5.93;1.00;;;;;;;;;;4988867;28;20629;-58
2021/04/09 13:28:33;;;;;;;8.38;1.15;;;;;;;;;;4990001;28;20490;-60
2021/04/09 13:30:59;;;;;;;5.57;0.85;;;;;;;;;;4990419;28;20048;-61
2021/04/09 13:33:30;;;;;;;6.47;0.93;;;;;;;;;;4989751;28;20416;-57
2021/04/09 13:35:57;;;;;;;4.93;1.13;;;;;;;;;;4989497;28;20349;-61
2021/04/09 13:38:23;;;;;;;4.93;1.10;;;;;;;;;;4989219;28;20121;-59
2021/04/09 13:40:50;;;;;;;5.78;1.10;;;;;;;;;;4989480;28;20050;-60
2021/04/09 13:43:16;;;;;;;9.18;1.35;;;;;;;;;;4990145;28;20046;-60
2021/04/09 13:45:42;;;;;;;14.63;1.30;;;;;;;;;;4988747;28;20074;-59
2021/04/09 13:48:08;;;;;;;9.73;1.40;;;;;;;;;;4969393;28;20042;-61
2021/04/09 13:50:34;;;;;;;7.35;1.45;;;;;;;;;;4989081;28;20045;-60
2021/04/09 13:53:00;;;;;;;10.73;1.45;;;;;;;;;;4989718;28;20058;-60
2021/04/09 13:55:27;;;;;;;9.02;1.58;;;;;;;;;;4952790;28;20069;-60
2021/04/09 13:57:53;;;;;;;14.30;1.45;;;;;;;;;;4989544;28;20074;-58
2021/04/09 14:00:19;;;;;;;7.50;1.40;;;;;;;;;;4989373;28;20047;-61
2021/04/09 14:02:45;;;;;;;8.63;1.48;;;;;;;;;;4988199;28;20026;-60
2021/04/09 14:05:11;;;;;;;13.55;1.48;;;;;;;;;;4990523;28;20049;-61
2021/04/09 14:07:37;;;;;;;11.57;1.92;;;;;;;;;;4987317;28;20047;-61
2021/04/09 14:10:03;;;;;;;11.23;1.77;;;;;;;;;;4986877;28;20612;-61
2021/04/09 14:12:29;;;;;;;11.32;1.50;;;;;;;;;;4987779;28;20542;-60
2021/04/09 14:14:55;;;;;;;17.15;2.10;;;;;;;;;;4984772;28;20156;-59
2021/04/09 14:17:24;;;;;;;10.93;1.63;;;;;;;;;;4988314;28;20030;-60
2021/04/09 14:19:51;;;;;;;10.32;1.95;;;;;;;;;;4989452;28;20140;-60
2021/04/09 14:22:17;;;;;;;11.02;1.40;;;;;;;;;;4987260;28;20034;-61
2021/04/09 14:24:43;;;;;;;11.27;1.65;;;;;;;;;;4987672;28;20096;-61
2021/04/09 14:27:09;;;;;;;9.77;1.33;;;;;;;;;;4988356;28;20129;-60
2021/04/09 14:29:35;;;;;;;14.45;1.70;;;;;;;;;;4985441;28;20511;-61
2021/04/09 14:32:01;;;;;;;6.65;1.30;;;;;;;;;;4987997;28;20038;-61
2021/04/09 14:34:27;;;;;;;6.97;1.40;;;;;;;;;;4985228;28;20034;-61
2021/04/09 14:36:53;;;;;;;7.70;1.23;;;;;;;;;;4986806;28;20045;-60
2021/04/09 14:39:19;;;;;;;17.63;1.83;;;;;;;;;;4985643;28;20043;-59
2021/04/09 14:41:45;;;;;;;7.75;1.20;;;;;;;;;;4988209;28;20042;-61
2021/04/09 14:44:11;;;;;;;8.20;1.40;;;;;;;;;;4986363;28;20392;-61
2021/04/09 14:46:40;;;;;;;5.05;1.27;;;;;;;;;;4987677;28;20042;-59
2021/04/09 14:49:07;;;;;;;10.45;1.13;;;;;;;;;;4986297;28;20773;-60